Time;durP1;ratioP1;P1;durP2;ratioP2;P2;SDS_P1;SDS_P2;PMS_P1;PMS_P2;Temp;Humidity;BMP_temperature;BMP_pressure;BME280_temperature;BME280_humidity;BME280_pressure;Samples;Min_cycle;Max_cycle;Signal;HPM_P1;HPM_P2
2023/10/21 00:02:08;;;;;;;;;1.33;1.00;;;;;14.83;100.00;98328.09;5064894;28;45441;-81
2023/10/21 00:04:34;;;;;;;;;3.00;3.00;;;;;15.32;100.00;98409.00;5066414;28;45493;-82
2023/10/21 00:07:00;;;;;;;;;3.00;2.00;;;;;14.88;100.00;98339.13;5078230;28;45539;-82
2023/10/21 00:09:25;;;;;;;;;2.00;2.00;;;;;14.96;100.00;98341.78;5057541;28;45499;-82
2023/10/21 00:11:51;;;;;;;;;2.00;2.00;;;;;15.09;100.00;98360.81;5059349;28;46092;-82
2023/10/21 00:14:17;;;;;;;;;2.00;2.00;;;;;14.73;100.00;98298.13;5064139;28;45368;-82
2023/10/21 00:16:43;;;;;;;;;1.00;1.00;;;;;14.98;100.00;98349.63;5070535;28;45341;-82
2023/10/21 00:19:10;;;;;;;;;2.00;2.00;;;;;15.11;100.00;98366.00;5045513;28;45479;-81
2023/10/21 00:21:36;;;;;;;;;2.00;2.00;;;;;15.08;100.00;98353.00;5060213;28;48199;-81
2023/10/21 00:24:03;;;;;;;;;1.67;1.33;;;;;15.09;100.00;98386.59;5077617;28;45474;-81
2023/10/21 00:26:28;;;;;;;;;1.33;1.33;;;;;15.34;100.00;98438.16;5078644;28;45548;-80
2023/10/21 00:28:56;;;;;;;;;2.00;1.00;;;;;15.08;100.00;98417.72;5056260;28;45431;-78
2023/10/21 00:31:21;;;;;;;;;0.00;0.00;;;;;15.16;100.00;98440.03;5060831;28;45510;-82
2023/10/21 00:33:46;;;;;;;;;0.00;0.00;;;;;15.04;100.00;98429.69;5073650;28;45388;-81
2023/10/21 00:36:12;;;;;;;;;0.00;0.00;;;;;14.93;100.00;98411.31;5067287;28;45297;-81
2023/10/21 00:38:37;;;;;;;;;0.00;0.00;;;;;14.83;100.00;98425.72;5059104;28;45581;-83
2023/10/21 00:41:02;;;;;;;;;0.00;0.00;;;;;14.82;100.00;98448.03;5072451;28;46199;-82
2023/10/21 00:43:38;;;;;;;;;0.00;0.00;;;;;14.87;100.00;98490.94;5068629;28;45659;-82
2023/10/21 00:46:13;;;;;;;;;0.00;0.00;;;;;14.60;100.00;98457.31;5076457;28;45528;-83
2023/10/21 00:48:39;;;;;;;;;0.00;0.00;;;;;14.59;100.00;98456.47;5041165;28;46019;-82
2023/10/21 00:51:06;;;;;;;;;0.00;0.00;;;;;14.70;100.00;98497.13;5071278;28;45344;-82
2023/10/21 00:53:31;;;;;;;;;0.00;0.00;;;;;14.66;100.00;98493.94;5071479;28;45234;-81
2023/10/21 00:55:58;;;;;;;;;0.00;0.00;;;;;14.66;100.00;98496.59;5058136;28;45360;-81
2023/10/21 00:58:25;;;;;;;;;0.00;0.00;;;;;14.69;100.00;98519.44;5071331;28;45680;-82
2023/10/21 01:00:51;;;;;;;;;0.00;0.00;;;;;14.73;100.00;98542.06;5067554;28;45407;-82
2023/10/21 01:03:16;;;;;;;;;0.00;0.00;;;;;14.49;100.00;98494.81;5078004;28;45356;-82
2023/10/21 01:05:42;;;;;;;;;0.00;0.00;;;;;14.31;100.00;98472.66;5055523;28;45483;-82
2023/10/21 01:08:07;;;;;;;;;0.00;0.00;;;;;14.48;100.00;98509.09;5054467;28;45495;-82
2023/10/21 01:10:32;;;;;;;;;0.00;0.00;;;;;14.67;100.00;98561.31;5059362;28;46989;-83
2023/10/21 01:12:58;;;;;;;;;0.00;0.00;;;;;14.34;100.00;98513.13;5057607;28;45402;-82
2023/10/21 01:15:23;;;;;;;;;0.00;0.00;;;;;14.17;100.00;98491.84;5071603;28;45391;-81
2023/10/21 01:17:50;;;;;;;;;0.00;0.00;;;;;14.54;100.00;98553.72;5069514;28;45625;-81
2023/10/21 01:20:16;;;;;;;;;0.00;0.00;;;;;14.37;100.00;98541.22;5066460;28;45360;-81
2023/10/21 01:22:42;;;;;;;;;0.00;0.00;;;;;14.60;100.00;98569.06;5073878;28;45292;-81
2023/10/21 01:25:08;;;;;;;;;0.00;0.00;;;;;14.61;100.00;98576.06;5070649;28;45992;-81
2023/10/21 01:27:33;;;;;;;;;0.00;0.00;;;;;14.59;100.00;98583.38;5068861;28;45499;-81
2023/10/21 01:29:59;;;;;;;;;0.00;0.00;;;;;14.57;100.00;98585.31;5059689;28;46216;-81
2023/10/21 01:32:25;;;;;;;;;1.00;0.00;;;;;14.33;100.00;98561.97;5049541;28;45361;-80
2023/10/21 01:34:50;;;;;;;;;0.33;0.00;;;;;14.03;100.00;98523.25;5076949;28;45534;-80
2023/10/21 01:37:16;;;;;;;;;0.00;0.00;;;;;14.22;100.00;98559.50;5068464;28;45458;-80
2023/10/21 01:39:41;;;;;;;;;0.00;0.00;;;;;14.28;100.00;98572.19;5060822;28;46117;-79
2023/10/21 01:42:07;;;;;;;;;0.00;0.00;;;;;14.33;100.00;98582.41;5078547;28;45497;-80
2023/10/21 01:44:32;;;;;;;;;0.33;0.00;;;;;14.21;100.00;98551.66;5063929;28;45325;-81
2023/10/21 01:46:57;;;;;;;;;0.00;0.00;;;;;14.52;100.00;98612.41;5067387;28;45611;-79
2023/10/21 01:49:23;;;;;;;;;0.00;0.00;;;;;14.44;100.00;98612.28;5069731;28;45364;-80
2023/10/21 01:51:48;;;;;;;;;0.00;0.00;;;;;14.33;100.00;98591.22;5047967;28;45528;-80
2023/10/21 01:54:13;;;;;;;;;0.00;0.00;;;;;14.34;100.00;98598.22;5058974;28;45392;-80
2023/10/21 01:56:39;;;;;;;;;0.00;0.00;;;;;14.25;100.00;98588.47;5070563;28;45408;-79
2023/10/21 01:59:04;;;;;;;;;0.00;0.00;;;;;14.38;100.00;98614.72;5064579;28;45456;-80
2023/10/21 02:01:29;;;;;;;;;0.00;0.00;;;;;14.40;100.00;98632.19;5071981;28;45766;-80
2023/10/21 02:03:58;;;;;;;;;0.00;0.00;;;;;14.43;100.00;98641.72;5080147;28;45905;-81
2023/10/21 02:06:23;;;;;;;;;1.00;0.00;;;;;14.06;100.00;98575.28;5064927;28;45818;-80
2023/10/21 02:08:49;;;;;;;;;1.00;0.00;;;;;14.39;100.00;98638.50;5072775;28;45530;-81
2023/10/21 02:11:20;;;;;;;;;0.67;0.00;;;;;14.47;100.00;98657.22;5085963;28;45477;-80
2023/10/21 02:13:45;;;;;;;;;0.00;0.00;;;;;14.30;100.00;98634.03;5080443;28;45260;-80
2023/10/21 02:16:11;;;;;;;;;0.00;0.00;;;;;14.46;100.00;98660.03;5079212;28;45479;-80
2023/10/21 02:18:36;;;;;;;;;2.00;0.00;;;;;14.35;100.00;98660.22;5054789;28;46932;-80
2023/10/21 02:21:05;;;;;;;;;0.00;0.00;;;;;14.39;100.00;98666.94;5066654;28;46198;-79
2023/10/21 02:23:30;;;;;;;;;0.00;0.00;;;;;14.31;100.00;98658.81;5048361;28;45457;-80
2023/10/21 02:26:14;;;;;;;;;0.00;0.00;;;;;14.29;100.00;98661.63;5063161;28;45699;-83
2023/10/21 02:28:40;;;;;;;;;0.00;0.00;;;;;14.28;100.00;98651.97;5065260;28;46856;-81
2023/10/21 02:31:09;;;;;;;;;1.00;0.00;;;;;14.05;100.00;98632.06;5052172;28;45543;-80
2023/10/21 02:33:34;;;;;;;;;0.00;0.00;;;;;14.38;100.00;98690.03;5082309;28;45279;-80
2023/10/21 02:35:59;;;;;;;;;0.00;0.00;;;;;14.30;100.00;98676.56;5081927;28;45389;-81
2023/10/21 02:38:25;;;;;;;;;1.00;0.00;;;;;14.28;100.00;98685.69;5068892;28;45460;-80
2023/10/21 02:40:50;;;;;;;;;1.33;0.00;;;;;14.29;100.00;98695.34;5062420;28;45356;-80
2023/10/21 02:43:16;;;;;;;;;0.00;0.00;;;;;14.25;100.00;98704.59;5078774;28;45301;-80
2023/10/21 02:45:42;;;;;;;;;0.00;0.00;;;;;14.26;100.00;98696.50;5067879;28;45596;-79
2023/10/21 02:48:08;;;;;;;;;2.00;0.00;;;;;14.22;100.00;98711.06;5057965;28;47888;-81
2023/10/21 02:50:33;;;;;;;;;0.00;0.00;;;;;13.94;100.00;98666.78;5080361;28;45591;-80
2023/10/21 02:52:59;;;;;;;;;0.00;0.00;;;;;14.19;100.00;98697.22;5072547;28;45730;-80
2023/10/21 02:55:29;;;;;;;;;0.00;0.00;;;;;14.00;100.00;98672.38;5067101;28;45473;-79
2023/10/21 02:57:54;;;;;;;;;0.00;0.00;;;;;14.25;100.00;98710.75;5064591;28;47607;-80
2023/10/21 03:00:21;;;;;;;;;0.00;0.00;;;;;14.23;100.00;98715.41;5071940;28;45314;-80
2023/10/21 03:02:48;;;;;;;;;0.00;0.00;;;;;13.90;100.00;98673.41;5055724;28;45312;-79
2023/10/21 03:05:14;;;;;;;;;0.67;0.67;;;;;14.08;100.00;98708.88;5076986;28;45717;-80
2023/10/21 03:07:40;;;;;;;;;0.00;0.00;;;;;14.00;100.00;98706.91;5067800;28;46542;-80
2023/10/21 03:10:06;;;;;;;;;0.00;0.00;;;;;14.12;100.00;98730.69;5061450;28;45388;-79
2023/10/21 03:12:32;;;;;;;;;0.00;0.00;;;;;14.09;100.00;98739.78;5080062;28;45355;-80
2023/10/21 03:14:58;;;;;;;;;1.00;0.00;;;;;14.16;100.00;98748.88;5067913;28;45590;-78
2023/10/21 03:17:23;;;;;;;;;0.00;0.00;;;;;14.13;100.00;98735.03;5073968;28;46586;-80
2023/10/21 03:19:49;;;;;;;;;0.00;0.00;;;;;14.13;100.00;98748.31;5073398;28;45453;-80
2023/10/21 03:22:15;;;;;;;;;0.00;0.00;;;;;14.06;100.00;98730.28;5054962;28;45325;-79
2023/10/21 03:24:41;;;;;;;;;1.33;0.00;;;;;14.03;100.00;98732.41;5083248;28;45284;-80
2023/10/21 03:27:06;;;;;;;;;0.00;0.00;;;;;13.97;100.00;98744.41;5061496;28;48349;-80
2023/10/21 03:29:32;;;;;;;;;0.00;0.00;;;;;14.06;100.00;98734.75;5069635;28;45036;-80
2023/10/21 03:31:57;;;;;;;;;5.00;0.00;;;;;14.12;100.00;98759.91;5060823;28;45390;-80
2023/10/21 03:34:23;;;;;;;;;1.33;0.00;;;;;13.68;100.00;98702.97;5067261;28;45347;-81
2023/10/21 03:36:48;;;;;;;;;0.00;0.00;;;;;13.84;100.00;98727.13;5066695;28;45451;-79
2023/10/21 03:39:15;;;;;;;;;3.00;0.00;;;;;13.72;100.00;98731.75;5075535;28;45433;-79
2023/10/21 03:41:40;;;;;;;;;0.33;0.33;;;;;13.83;100.00;98758.19;5064415;28;45497;-79
2023/10/21 03:44:06;;;;;;;;;0.00;0.00;;;;;13.68;100.00;98740.97;5067162;28;45349;-79
2023/10/21 03:46:31;;;;;;;;;2.00;1.00;;;;;13.73;100.00;98753.84;5070682;28;48204;-80
2023/10/21 03:48:57;;;;;;;;;1.00;0.00;;;;;13.83;100.00;98794.53;5059293;28;45622;-80
2023/10/21 03:51:22;;;;;;;;;1.67;0.00;;;;;13.75;100.00;98784.59;5067607;28;45477;-79
2023/10/21 03:53:48;;;;;;;;;0.00;0.00;;;;;13.53;100.00;98759.19;5079362;28;45404;-79
2023/10/21 03:56:14;;;;;;;;;0.00;0.00;;;;;13.37;100.00;98742.13;5072641;28;46357;-79
2023/10/21 03:58:40;;;;;;;;;0.00;0.00;;;;;13.38;100.00;98744.63;5071159;28;45466;-81
2023/10/21 04:01:06;;;;;;;;;0.00;0.00;;;;;13.59;100.00;98776.38;5078975;28;45412;-80
2023/10/21 04:03:32;;;;;;;;;2.33;0.00;;;;;13.40;100.00;98769.25;5068133;28;45620;-79
2023/10/21 04:05:58;;;;;;;;;0.00;0.00;;;;;13.62;100.00;98804.47;5047391;28;45417;-80
2023/10/21 04:08:25;;;;;;;;;2.00;0.00;;;;;13.56;100.00;98800.56;5069263;28;45708;-79
2023/10/21 04:10:54;;;;;;;;;1.33;0.00;;;;;13.54;100.00;98811.34;5059223;28;45467;-80
2023/10/21 04:13:20;;;;;;;;;0.00;0.00;;;;;13.63;100.00;98820.28;5072654;28;45463;-80
2023/10/21 04:15:46;;;;;;;;;1.00;0.00;;;;;13.28;100.00;98758.91;5063695;28;46665;-80
2023/10/21 04:18:11;;;;;;;;;0.00;0.00;;;;;13.61;100.00;98853.28;5051890;28;45345;-80
2023/10/21 04:20:38;;;;;;;;;0.00;0.00;;;;;13.39;100.00;98811.88;5072940;28;45453;-81
2023/10/21 04:23:03;;;;;;;;;1.67;0.33;;;;;13.55;100.00;98844.88;5058858;28;45627;-80
2023/10/21 04:25:32;;;;;;;;;2.67;0.00;;;;;13.50;100.00;98830.34;5084616;28;45347;-80
2023/10/21 04:27:57;;;;;;;;;1.67;0.00;;;;;13.54;100.00;98845.03;5078610;28;45505;-81
2023/10/21 04:30:23;;;;;;;;;3.00;0.00;;;;;13.54;100.00;98853.84;5083788;28;45396;-80
2023/10/21 04:32:50;;;;;;;;;0.33;0.33;;;;;13.24;100.00;98816.75;5059062;28;45340;-80
2023/10/21 04:35:15;;;;;;;;;0.00;0.00;;;;;13.21;100.00;98803.75;5066561;28;47915;-79
2023/10/21 04:37:41;;;;;;;;;0.00;0.00;;;;;13.23;100.00;98795.63;5076082;27;45551;-81
2023/10/21 04:40:08;;;;;;;;;0.00;0.00;;;;;13.33;100.00;98841.63;5064993;28;45447;-81
2023/10/21 04:42:33;;;;;;;;;0.00;0.00;;;;;13.43;100.00;98842.47;5067194;28;45446;-80
2023/10/21 04:44:58;;;;;;;;;1.33;0.00;;;;;13.60;100.00;98857.75;5062602;27;47136;-80
2023/10/21 04:47:24;;;;;;;;;0.00;0.00;;;;;13.40;100.00;98826.81;5076740;27;45348;-80
2023/10/21 04:49:49;;;;;;;;;0.00;0.00;;;;;13.61;100.00;98863.91;5064912;28;48247;-79
2023/10/21 04:52:15;;;;;;;;;4.00;0.00;;;;;13.59;100.00;98872.00;5072920;28;45335;-81
2023/10/21 04:54:42;;;;;;;;;0.00;0.00;;;;;13.64;100.00;98885.72;5056006;28;46732;-80
2023/10/21 04:57:08;;;;;;;;;2.00;0.00;;;;;13.64;100.00;98882.22;5067002;28;45344;-81
2023/10/21 04:59:33;;;;;;;;;0.00;0.00;;;;;13.60;100.00;98883.47;5064986;28;45290;-81
2023/10/21 05:01:59;;;;;;;;;0.00;0.00;;;;;13.51;100.00;98870.00;5060757;28;45222;-81
2023/10/21 05:04:25;;;;;;;;;0.00;0.00;;;;;13.35;100.00;98840.50;5077380;28;46158;-80
2023/10/21 05:06:50;;;;;;;;;0.00;0.00;;;;;13.74;100.00;98899.84;5054609;28;45302;-79
2023/10/21 05:09:16;;;;;;;;;0.00;0.00;;;;;13.70;100.00;98901.09;5086981;28;45291;-79
2023/10/21 05:11:41;;;;;;;;;0.00;0.00;;;;;13.54;100.00;98871.56;5081564;28;45265;-79
2023/10/21 05:14:06;;;;;;;;;1.00;0.00;;;;;13.75;100.00;98903.31;5078538;28;46212;-80
2023/10/21 05:16:32;;;;;;;;;1.00;0.00;;;;;13.48;100.00;98862.31;5053222;28;45333;-80
2023/10/21 05:18:57;;;;;;;;;2.67;0.33;;;;;13.59;100.00;98879.97;5065795;28;45337;-80
2023/10/21 05:21:23;;;;;;;;;0.00;0.00;;;;;13.67;100.00;98917.31;5082510;28;45291;-79
2023/10/21 05:23:48;;;;;;;;;0.00;0.00;;;;;13.60;100.00;98902.06;5070790;28;45221;-79
2023/10/21 05:26:14;;;;;;;;;1.00;0.00;;;;;13.24;100.00;98876.97;5076566;28;45540;-80
2023/10/21 05:28:39;;;;;;;;;1.67;0.00;;;;;13.29;100.00;98874.72;5083364;28;45330;-80
2023/10/21 05:31:10;;;;;;;;;0.00;0.00;;;;;13.42;100.00;98908.03;5078124;28;45429;-79
2023/10/21 05:33:45;;;;;;;;;0.00;0.00;;;;;13.19;100.00;98893.28;5054513;28;45348;-79
2023/10/21 05:36:10;;;;;;;;;0.00;0.00;;;;;13.36;100.00;98908.56;5067048;28;45305;-80
2023/10/21 05:38:35;;;;;;;;;2.33;0.00;;;;;13.29;100.00;98911.91;5073570;28;45257;-80
2023/10/21 05:41:04;;;;;;;;;2.33;0.00;;;;;12.96;100.00;98862.59;5086617;28;45276;-80
2023/10/21 05:43:29;;;;;;;;;1.00;0.00;;;;;12.92;100.00;98853.25;5065980;28;47111;-79
2023/10/21 05:45:55;;;;;;;;;2.00;0.00;;;;;12.80;100.00;98827.75;5089071;27;45478;-79
2023/10/21 05:48:20;;;;;;;;;0.00;0.00;;;;;13.40;100.00;98933.88;5055835;28;45384;-79
2023/10/21 05:50:47;;;;;;;;;3.00;0.33;;;;;13.42;100.00;98933.72;5083117;28;45422;-79
2023/10/21 05:53:16;;;;;;;;;1.00;0.00;;;;;13.45;100.00;98939.63;5079355;28;46833;-79
2023/10/21 05:55:43;;;;;;;;;0.00;0.00;;;;;13.36;100.00;98939.59;5075705;28;45029;-79
2023/10/21 05:58:12;;;;;;;;;0.33;0.33;;;;;13.04;100.00;98882.19;5078109;28;45239;-79
2023/10/21 06:00:37;;;;;;;;;0.67;0.67;;;;;13.04;100.00;98899.91;5048897;28;45487;-80
2023/10/21 06:03:05;;;;;;;;;0.00;0.00;;;;;13.25;100.00;98932.56;5064337;28;46199;-79
2023/10/21 06:05:30;;;;;;;;;0.00;0.00;;;;;13.13;100.00;98903.59;5046494;28;45640;-79
2023/10/21 06:07:56;;;;;;;;;0.00;0.00;;;;;13.07;100.00;98907.63;5073475;28;45276;-79
2023/10/21 06:10:22;;;;;;;;;1.00;0.67;;;;;12.94;100.00;98891.06;5046040;28;45770;-79
2023/10/21 06:12:47;;;;;;;;;1.00;0.00;;;;;13.13;100.00;98916.88;5058589;28;45512;-79
2023/10/21 06:15:13;;;;;;;;;3.33;1.00;;;;;12.97;100.00;98907.56;5061623;28;45863;-79
2023/10/21 06:17:38;;;;;;;;;1.33;1.00;;;;;13.38;100.00;98949.09;5074494;28;45427;-80
2023/10/21 06:20:05;;;;;;;;;1.33;1.00;;;;;13.27;100.00;98937.75;5078943;28;45585;-79
2023/10/21 06:22:30;;;;;;;;;1.00;0.00;;;;;13.22;100.00;98934.66;5070747;28;46439;-81
2023/10/21 06:24:56;;;;;;;;;1.33;0.33;;;;;13.41;100.00;98950.66;5071388;28;45356;-80
2023/10/21 06:27:21;;;;;;;;;2.33;1.00;;;;;13.36;100.00;98947.56;5063290;28;45338;-79
2023/10/21 06:29:47;;;;;;;;;3.33;1.33;;;;;13.40;100.00;98964.91;5059559;28;45491;-80
2023/10/21 06:32:12;;;;;;;;;3.00;1.00;;;;;13.43;100.00;98977.91;5053797;28;47230;-79
2023/10/21 06:34:38;;;;;;;;;3.00;1.00;;;;;13.48;100.00;98968.56;5055769;28;45400;-79
2023/10/21 06:37:03;;;;;;;;;1.67;1.67;;;;;13.54;100.00;98973.34;5063039;28;45346;-80
2023/10/21 06:39:29;;;;;;;;;2.00;1.00;;;;;13.18;100.00;98912.03;5075488;28;45460;-79
2023/10/21 06:41:55;;;;;;;;;4.00;1.00;;;;;12.96;100.00;98867.91;5051214;28;46193;-81
2023/10/21 06:44:20;;;;;;;;;3.00;1.33;;;;;13.64;100.00;98980.50;5067190;28;45373;-80
2023/10/21 06:46:46;;;;;;;;;1.00;1.00;;;;;13.66;100.00;99003.28;5069332;28;45659;-79
2023/10/21 06:49:12;;;;;;;;;1.33;0.67;;;;;13.64;100.00;98973.38;5058588;28;45328;-79
2023/10/21 06:51:41;;;;;;;;;2.33;0.33;;;;;13.74;100.00;98982.22;5061953;28;45950;-80
2023/10/21 06:54:06;;;;;;;;;2.00;1.00;;;;;13.60;100.00;98960.50;5062418;28;45691;-79
2023/10/21 06:56:32;;;;;;;;;1.00;1.00;;;;;13.85;100.00;98998.00;5055388;28;45352;-79
2023/10/21 06:58:57;;;;;;;;;1.67;1.67;;;;;13.88;100.00;99000.41;5049838;28;45539;-80
2023/10/21 07:01:23;;;;;;;;;1.00;1.00;;;;;13.77;100.00;98973.97;5077636;28;46376;-79
2023/10/21 07:03:52;;;;;;;;;1.00;0.33;;;;;13.91;100.00;99004.59;5075868;28;45488;-79
2023/10/21 07:06:18;;;;;;;;;0.33;0.00;;;;;13.89;100.00;98998.59;5061458;28;45326;-79
2023/10/21 07:08:43;;;;;;;;;2.00;1.00;;;;;13.80;100.00;98996.75;5067184;28;45553;-79
2023/10/21 07:11:11;;;;;;;;;2.33;1.33;;;;;13.69;100.00;98992.38;5071891;28;46138;-77
2023/10/21 07:13:36;;;;;;;;;3.33;0.67;;;;;13.82;100.00;99011.56;5077851;28;45316;-79
2023/10/21 07:16:10;;;;;;;;;4.00;1.00;;;;;13.82;100.00;99021.38;5073156;28;45922;-76
2023/10/21 07:18:38;;;;;;;;;2.00;1.00;;;;;13.99;100.00;99048.13;5049845;28;45951;-77
2023/10/21 07:21:07;;;;;;;;;1.33;1.33;;;;;13.95;100.00;99028.13;5079603;28;45511;-77
2023/10/21 07:23:32;;;;;;;;;5.67;3.00;;;;;14.00;100.00;99052.44;5060735;28;45278;-78
2023/10/21 07:25:58;;;;;;;;;1.00;1.00;;;;;13.67;100.00;98988.19;5072617;28;45357;-77
2023/10/21 07:28:23;;;;;;;;;4.00;1.00;;;;;14.03;100.00;99054.88;5068327;28;45458;-79
2023/10/21 07:30:57;;;;;;;;;3.33;1.00;;;;;13.88;100.00;99034.94;5059674;28;48085;-80
2023/10/21 07:33:44;;;;;;;;;3.00;2.00;;;;;13.64;100.00;98972.53;5065872;28;45412;-79
2023/10/21 07:36:10;;;;;;;;;1.00;1.00;;;;;13.59;100.00;98959.66;5059881;27;45633;-79
2023/10/21 07:38:38;;;;;;;;;2.00;0.67;;;;;13.60;100.00;98971.13;5072740;28;45697;-79
2023/10/21 07:41:13;;;;;;;;;1.00;0.00;;;;;14.02;100.00;99031.91;5072897;28;47201;-79
2023/10/21 07:43:42;;;;;;;;;4.33;1.00;;;;;13.71;100.00;99011.69;5072542;28;45494;-79
2023/10/21 07:46:08;;;;;;;;;6.00;0.00;;;;;13.88;97.36;99053.53;5069897;28;45312;-78
2023/10/21 07:48:39;;;;;;;;;0.00;0.00;;;;;14.09;100.00;99066.75;5073875;28;46020;-79
2023/10/21 07:51:07;;;;;;;;;3.33;2.00;;;;;14.00;98.69;99062.28;5079033;28;45794;-79
2023/10/21 07:53:35;;;;;;;;;1.00;1.00;;;;;13.86;97.96;99065.31;5066098;28;45240;-79
2023/10/21 07:56:01;;;;;;;;;0.00;0.00;;;;;13.81;100.00;99039.13;5062568;28;45408;-79
2023/10/21 07:58:28;;;;;;;;;2.00;0.00;;;;;13.81;99.75;99028.50;5064032;28;45382;-79
2023/10/21 08:00:54;;;;;;;;;3.33;1.00;;;;;13.69;99.49;99010.13;5069069;28;46071;-80
2023/10/21 08:03:19;;;;;;;;;2.00;2.00;;;;;14.03;100.00;99073.47;5057718;28;45361;-79
2023/10/21 08:05:47;;;;;;;;;2.00;2.00;;;;;14.13;100.00;99052.22;5075660;28;45382;-78
2023/10/21 08:08:13;;;;;;;;;2.67;1.67;;;;;13.65;94.67;98985.66;5072410;28;45427;-79
2023/10/21 08:10:44;;;;;;;;;2.00;1.00;;;;;14.01;97.69;99029.38;5046820;28;45799;-79
2023/10/21 08:13:09;;;;;;;;;1.33;1.00;;;;;14.40;97.60;99073.69;5045678;28;45519;-79
2023/10/21 08:15:43;;;;;;;;;2.33;0.00;;;;;13.98;97.98;98973.84;5052328;28;45481;-80
2023/10/21 08:18:11;;;;;;;;;1.00;1.00;;;;;14.48;95.35;99041.94;5071488;28;45415;-79
2023/10/21 08:20:37;;;;;;;;;2.33;1.00;;;;;14.89;94.50;99083.34;5058630;28;47924;-79
2023/10/21 08:23:14;;;;;;;;;2.67;1.00;;;;;14.93;94.49;99076.78;5047555;28;45296;-79
2023/10/21 08:25:45;;;;;;;;;4.33;0.33;;;;;14.72;95.11;99049.50;5073367;28;45486;-79
2023/10/21 08:28:21;;;;;;;;;3.33;1.00;;;;;14.61;93.33;99025.69;5055644;28;45594;-79
2023/10/21 08:30:47;;;;;;;;;2.67;0.33;;;;;14.63;93.91;99033.53;5062592;28;46475;-80
2023/10/21 08:33:19;;;;;;;;;3.00;1.00;;;;;14.81;91.79;99067.28;5069454;28;45250;-80
2023/10/21 08:35:52;;;;;;;;;1.00;1.00;;;;;14.30;90.75;99002.84;5053820;28;45413;-79
2023/10/21 08:38:20;;;;;;;;;1.00;1.00;;;;;14.52;92.53;99040.69;5067912;28;45464;-79
2023/10/21 08:40:53;;;;;;;;;4.00;0.67;;;;;14.77;93.66;99049.06;5057204;28;47461;-80
2023/10/21 08:43:21;;;;;;;;;1.00;1.00;;;;;14.74;92.19;99020.91;5070459;28;45861;-80
2023/10/21 08:45:48;;;;;;;;;1.00;1.00;;;;;14.77;91.25;99039.25;5064612;28;45621;-80
2023/10/21 08:48:15;;;;;;;;;1.00;1.00;;;;;15.10;89.55;99061.91;5072062;28;45593;-80
2023/10/21 08:50:53;;;;;;;;;4.00;2.00;;;;;15.00;87.09;99045.09;5061641;28;46723;-80
2023/10/21 08:53:38;;;;;;;;;1.00;1.00;;;;;14.88;90.20;99016.97;5074503;28;45494;-80
2023/10/21 08:56:24;;;;;;;;;5.33;1.00;;;;;15.38;89.61;99102.78;5071589;28;45416;-79
2023/10/21 08:59:01;;;;;;;;;1.33;1.33;;;;;14.99;90.67;99046.91;5076409;28;45600;-80
2023/10/21 09:02:28;;;;;;;;;1.33;0.00;;;;;14.64;87.05;99012.09;5057572;28;45718;-80
2023/10/21 09:05:08;;;;;;;;;2.67;0.67;;;;;14.73;91.69;99032.53;5068966;28;45450;-80
2023/10/21 09:08:08;;;;;;;;;;;;;;;;;;;;;
2023/10/21 09:11:10;;;;;;;;;4.00;2.00;;;;;14.57;92.40;99040.22;5069000;28;72922;-80
2023/10/21 09:13:39;;;;;;;;;2.67;1.00;;;;;15.11;90.49;99122.16;5074164;28;46267;-80
2023/10/21 09:16:25;;;;;;;;;2.00;0.00;;;;;14.91;90.78;99083.22;5074739;28;45719;-79
2023/10/21 09:19:14;;;;;;;;;;;;;;;;;;;;;
2023/10/21 09:21:42;;;;;;;;;2.33;0.67;;;;;15.04;91.67;99087.28;5065034;28;74288;-80
2023/10/21 09:24:30;;;;;;;;;1.00;0.00;;;;;15.04;90.78;99079.28;5056936;27;47910;-80
2023/10/21 09:26:57;;;;;;;;;3.33;1.00;;;;;15.17;87.44;99073.66;5067646;28;45455;-81
2023/10/21 09:29:32;;;;;;;;;4.33;1.00;;;;;15.21;90.30;99084.88;5080266;28;45500;-80
2023/10/21 09:31:57;;;;;;;;;1.67;0.67;;;;;15.32;88.88;99104.19;5058145;28;45513;-80
2023/10/21 09:34:31;;;;;;;;;4.67;1.00;;;;;15.05;89.31;99064.16;5076540;28;45714;-80
2023/10/21 09:37:04;;;;;;;;;0.33;0.00;;;;;15.59;88.16;99152.25;5078822;28;45526;-82
2023/10/21 09:39:36;;;;;;;;;1.67;1.00;;;;;15.26;86.35;99072.78;5053913;28;45550;-81
2023/10/21 09:42:47;;;;;;;;;;;;;;;;;;;;;
2023/10/21 09:45:23;;;;;;;;;1.67;0.67;;;;;15.06;85.85;99032.06;5070981;28;75025;-83
2023/10/21 09:48:08;;;;;;;;;2.00;0.00;;;;;15.08;89.69;99034.59;5081671;28;45453;-83
2023/10/21 09:50:55;;;;;;;;;2.00;0.67;;;;;15.77;86.01;99165.66;5062497;28;45563;-84
2023/10/21 09:53:38;;;;;;;;;1.00;0.33;;;;;15.47;88.39;99124.06;5081590;28;45410;-84
2023/10/21 09:56:07;;;;;;;;;0.00;0.00;;;;;15.13;92.17;99081.09;5081375;28;45445;-85
2023/10/21 09:58:34;;;;;;;;;0.67;0.00;;;;;15.11;93.21;99074.25;5055527;28;45367;-85
2023/10/21 10:04:45;;;;;;;;;0.00;0.00;;;;;15.17;95.79;99086.97;5079142;28;45434;-84
2023/10/21 10:07:32;;;;;;;;;2.67;1.00;;;;;15.41;95.80;99145.94;5001832;28;45644;-84
2023/10/21 10:10:10;;;;;;;;;1.33;0.00;;;;;15.06;95.36;99108.41;4994959;28;45435;-83
2023/10/21 10:15:52;;;;;;;;;1.00;1.00;;;;;15.00;92.34;99067.25;5064852;28;45464;-83
2023/10/21 10:18:21;;;;;;;;;3.33;0.67;;;;;14.91;90.37;99056.59;5073721;28;47313;-81
2023/10/21 10:21:13;;;;;;;;;1.00;1.00;;;;;15.38;90.43;99111.59;5075742;28;45556;-82
2023/10/21 10:27:41;;;;;;;;;1.00;1.00;;;;;15.35;90.87;99049.75;5068860;28;46325;-83
2023/10/21 10:34:08;;;;;;;;;0.00;0.00;;;;;15.52;86.97;99041.91;5042693;28;45520;-81
2023/10/21 10:41:05;;;;;;;;;3.00;1.00;;;;;16.40;86.46;99142.63;5001213;28;45452;-83
2023/10/21 10:48:39;;;;;;;;;;;;;;;;;;;;;
2023/10/21 11:02:59;;;;;;;;;1.67;1.00;;;;;16.15;84.38;99128.19;4834416;29;45553;-84
2023/10/21 11:05:52;;;;;;;;;0.00;0.00;;;;;16.20;82.00;99108.25;4889115;28;45521;-84
2023/10/21 11:08:18;;;;;;;;;0.00;0.00;;;;;16.45;82.42;99166.22;5044424;28;45298;-84
2023/10/21 11:14:16;;;;;;;;;1.00;1.00;;;;;15.90;83.63;99054.19;5055132;28;45330;-83
2023/10/21 11:16:43;;;;;;;;;4.67;0.00;;;;;16.17;81.17;99094.19;5066797;28;45509;-84
2023/10/21 11:19:09;;;;;;;;;0.33;0.33;;;;;16.17;82.09;99123.53;5079705;28;45478;-83
2023/10/21 11:21:51;;;;;;;;;1.00;1.00;;;;;15.84;82.76;99051.28;5041841;28;47301;-83
2023/10/21 11:24:29;;;;;;;;;;;;;;;;;;;;;
2023/10/21 11:27:19;;;;;;;;;3.00;2.00;;;;;16.24;82.23;99118.44;5056925;28;68348;-83
2023/10/21 11:30:07;;;;;;;;;;;;;;;;;;;;;
2023/10/21 11:32:38;;;;;;;;;5.33;1.00;;;;;16.34;83.75;99145.91;5067504;28;75142;-84
2023/10/21 11:35:41;;;;;;;;;2.67;0.33;;;;;16.47;84.08;99153.56;5074353;28;45471;-83
2023/10/21 11:38:10;;;;;;;;;0.67;0.33;;;;;16.16;83.65;99121.84;5063084;28;45696;-84
2023/10/21 11:40:46;;;;;;;;;0.00;0.00;;;;;16.13;84.10;99092.81;5075237;28;45305;-83
2023/10/21 11:43:27;;;;;;;;;0.00;0.00;;;;;16.02;84.57;99087.69;5060421;28;47342;-83
2023/10/21 11:46:01;;;;;;;;;0.00;0.00;;;;;16.05;83.60;99087.38;5048561;28;45313;-83
2023/10/21 11:49:15;;;;;;;;;1.00;0.00;;;;;16.56;82.33;99158.00;5079170;28;45300;-83
2023/10/21 11:51:54;;;;;;;;;1.00;1.00;;;;;16.58;84.76;99180.91;5051804;28;45313;-84
2023/10/21 11:54:39;;;;;;;;;1.33;0.00;;;;;16.53;80.75;99174.28;5052153;28;46163;-83
2023/10/21 12:24:00;;;;;;;;;3.00;0.00;;;;;15.94;79.53;99164.91;5072384;27;45559;-83
2023/10/21 12:43:57;;;;;;;;;2.67;0.00;;;;;16.58;79.15;99161.41;4976019;28;46150;-84
2023/10/21 12:50:28;;;;;;;;;1.67;0.33;;;;;16.16;80.20;99091.69;4928195;28;45651;-83
2023/10/21 12:56:30;;;;;;;;;1.00;0.00;;;;;16.21;78.72;99075.22;4904011;28;45564;-83
2023/10/21 12:58:58;;;;;;;;;2.00;0.67;;;;;16.45;75.93;99118.19;4932590;28;45492;-80
2023/10/21 13:01:34;;;;;;;;;;;;;;;;;;;;;
2023/10/21 13:04:09;;;;;;;;;0.33;0.33;;;;;16.55;76.11;99133.19;5006430;28;72969;-81
2023/10/21 13:06:35;;;;;;;;;0.67;0.00;;;;;16.66;74.17;99158.78;4998647;28;47635;-83
2023/10/21 13:09:21;;;;;;;;;2.67;2.00;;;;;17.06;76.69;99217.97;4998928;28;44702;-82
2023/10/21 13:11:50;;;;;;;;;3.00;1.00;;;;;16.95;76.96;99174.63;4995641;28;45390;-80
2023/10/21 13:14:17;;;;;;;;;1.00;1.00;;;;;16.73;74.29;99149.19;4996439;28;45800;-81
2023/10/21 13:16:42;;;;;;;;;0.00;0.00;;;;;17.09;71.44;99198.13;4996243;28;46531;-79
2023/10/21 13:19:08;;;;;;;;;2.00;0.67;;;;;16.91;75.35;99163.41;5056532;28;45650;-80